aviador You're here:

KPWA Decoded Metar

OKLA CITY/WILEY in OK, USA
Report Time2017-11-19 20:53:00
UTC Time2017-11-19 21:48:31
Flight Rules vfr VFR
Wind230° at 10 kt
W.Decomp.*RWY 17: 5.7 kt HW 8.2 kt RCW
RWY 31: 0.9 kt HW 10 kt LCW
W.Rank230° ranks 27
Current wind is above 230° avg. (7.3)
Visibility9999 m
Phenomena:N/A
Clouds:N/A
Expected CloudBase > 8,400 ft AGL from Temp-Dew spread
CeilingNone
Temp15°C (ISA +3)
Dew Point-6°C (23% RH)
AAT8.7°C
QNH1023 hPa
Density Alt1,332 ft
Elevation1,302 ft
Report Wrong Elevation
Raw Report
KPWA 192053Z 23010KT 10SM CLR 15/M06 A3022 RMK AO2 SLP233
T01501056 56033=

Extra information for KPWA:More info

Metar Taf Metar & Taf Last 4 Metars F.Rules Stats Wind Profile Meteogram Temp Stats Airport Information Weather charts Add Link Nearby VenuesMetar ALERT Operation Metar Decoded Social comments

AIRNAV info for KPWA